sensor_id;sensor_type;location;lat;lon;timestamp;pressure;altitude;pressure_sealevel;temperature;humidity
75447;BME280;64024;55.820;37.574;2022-12-07T00:01:10;99934.50;;;10.33;39.99
75447;BME280;64024;55.820;37.574;2022-12-07T00:03:37;99942.47;;;10.33;40.38
75447;BME280;64024;55.820;37.574;2022-12-07T00:06:05;99932.66;;;10.34;40.64
75447;BME280;64024;55.820;37.574;2022-12-07T00:08:31;99931.44;;;10.36;40.72
75447;BME280;64024;55.820;37.574;2022-12-07T00:11:02;99940.41;;;10.35;40.16
75447;BME280;64024;55.820;37.574;2022-12-07T00:13:28;99937.06;;;10.27;40.57
75447;BME280;64024;55.820;37.574;2022-12-07T00:15:53;99938.91;;;10.11;39.83
75447;BME280;64024;55.820;37.574;2022-12-07T00:18:19;99939.13;;;9.95;40.56
75447;BME280;64024;55.820;37.574;2022-12-07T00:20:44;99931.41;;;9.79;40.55
75447;BME280;64024;55.820;37.574;2022-12-07T00:23:10;99935.91;;;9.63;40.14
75447;BME280;64024;55.820;37.574;2022-12-07T00:25:35;99930.59;;;9.49;40.77
75447;BME280;64024;55.820;37.574;2022-12-07T00:28:01;99934.91;;;9.35;40.70
75447;BME280;64024;55.820;37.574;2022-12-07T00:30:26;99936.56;;;9.21;40.50
75447;BME280;64024;55.820;37.574;2022-12-07T00:32:52;99945.31;;;9.07;40.29
75447;BME280;64024;55.820;37.574;2022-12-07T00:35:17;99938.63;;;8.96;40.84
75447;BME280;64024;55.820;37.574;2022-12-07T00:37:43;99940.88;;;8.84;41.03
75447;BME280;64024;55.820;37.574;2022-12-07T00:40:09;99933.34;;;8.73;41.07
75447;BME280;64024;55.820;37.574;2022-12-07T00:42:34;99945.84;;;8.64;40.74
75447;BME280;64024;55.820;37.574;2022-12-07T00:45:00;99943.28;;;8.56;41.26
75447;BME280;64024;55.820;37.574;2022-12-07T00:47:25;99945.16;;;8.48;41.44
75447;BME280;64024;55.820;37.574;2022-12-07T00:49:51;99944.41;;;8.39;41.43
75447;BME280;64024;55.820;37.574;2022-12-07T00:52:16;99946.06;;;8.32;41.78
75447;BME280;64024;55.820;37.574;2022-12-07T00:54:42;99956.69;;;8.23;41.33
75447;BME280;64024;55.820;37.574;2022-12-07T00:57:07;99956.56;;;8.17;41.85
75447;BME280;64024;55.820;37.574;2022-12-07T00:59:33;99941.59;;;8.09;41.72
75447;BME280;64024;55.820;37.574;2022-12-07T01:01:58;99944.28;;;8.01;41.79
75447;BME280;64024;55.820;37.574;2022-12-07T01:04:24;99943.94;;;7.96;41.52
75447;BME280;64024;55.820;37.574;2022-12-07T01:06:49;99942.81;;;7.90;42.11
75447;BME280;64024;55.820;37.574;2022-12-07T01:09:15;99941.03;;;7.83;41.71
75447;BME280;64024;55.820;37.574;2022-12-07T01:11:40;99935.63;;;7.76;41.79
75447;BME280;64024;55.820;37.574;2022-12-07T01:14:06;99937.31;;;7.69;41.59
75447;BME280;64024;55.820;37.574;2022-12-07T01:16:32;99945.09;;;7.62;41.54
75447;BME280;64024;55.820;37.574;2022-12-07T01:18:59;99935.03;;;7.58;41.99
75447;BME280;64024;55.820;37.574;2022-12-07T01:21:28;99935.56;;;7.53;42.08
75447;BME280;64024;55.820;37.574;2022-12-07T01:23:56;99925.66;;;7.47;42.04
75447;BME280;64024;55.820;37.574;2022-12-07T01:26:23;99932.44;;;7.41;41.97
75447;BME280;64024;55.820;37.574;2022-12-07T01:28:49;99928.69;;;7.36;42.17
75447;BME280;64024;55.820;37.574;2022-12-07T01:31:18;99937.28;;;7.30;42.38
75447;BME280;64024;55.820;37.574;2022-12-07T01:33:45;99943.06;;;7.25;42.13
75447;BME280;64024;55.820;37.574;2022-12-07T01:36:17;99932.38;;;7.18;42.00
75447;BME280;64024;55.820;37.574;2022-12-07T01:38:43;99924.94;;;7.14;42.12
75447;BME280;64024;55.820;37.574;2022-12-07T01:41:09;99923.78;;;7.08;42.33
75447;BME280;64024;55.820;37.574;2022-12-07T01:43:35;99924.47;;;7.02;42.50
75447;BME280;64024;55.820;37.574;2022-12-07T01:46:03;99920.50;;;6.98;42.08
75447;BME280;64024;55.820;37.574;2022-12-07T01:48:35;99925.31;;;6.94;42.18
75447;BME280;64024;55.820;37.574;2022-12-07T01:51:09;99913.59;;;6.89;42.12
75447;BME280;64024;55.820;37.574;2022-12-07T01:53:38;99911.47;;;6.84;42.65
75447;BME280;64024;55.820;37.574;2022-12-07T01:56:07;99914.56;;;6.80;42.39
75447;BME280;64024;55.820;37.574;2022-12-07T01:58:34;99916.91;;;6.75;42.41
75447;BME280;64024;55.820;37.574;2022-12-07T02:01:00;99912.94;;;6.70;42.93
75447;BME280;64024;55.820;37.574;2022-12-07T02:03:34;99919.53;;;6.66;42.40
75447;BME280;64024;55.820;37.574;2022-12-07T02:06:01;99913.75;;;6.63;42.78
75447;BME280;64024;55.820;37.574;2022-12-07T02:08:27;99909.81;;;6.59;42.49
75447;BME280;64024;55.820;37.574;2022-12-07T02:10:52;99905.03;;;6.54;43.09
75447;BME280;64024;55.820;37.574;2022-12-07T02:13:26;99908.00;;;6.51;43.24
75447;BME280;64024;55.820;37.574;2022-12-07T02:30:10;99903.53;;;6.27;43.20
75447;BME280;64024;55.820;37.574;2022-12-07T02:33:17;99909.16;;;6.24;42.99
75447;BME280;64024;55.820;37.574;2022-12-07T02:35:51;99901.72;;;6.19;43.05
75447;BME280;64024;55.820;37.574;2022-12-07T02:38:26;99903.84;;;6.16;43.28
75447;BME280;64024;55.820;37.574;2022-12-07T02:41:00;99901.72;;;6.11;42.88
75447;BME280;64024;55.820;37.574;2022-12-07T02:43:35;99902.03;;;6.08;43.15
75447;BME280;64024;55.820;37.574;2022-12-07T02:46:11;99899.69;;;6.05;43.21
75447;BME280;64024;55.820;37.574;2022-12-07T02:48:39;99906.16;;;6.03;43.17
75447;BME280;64024;55.820;37.574;2022-12-07T02:51:06;99902.19;;;5.98;43.03
75447;BME280;64024;55.820;37.574;2022-12-07T02:53:38;99898.03;;;5.96;43.43
75447;BME280;64024;55.820;37.574;2022-12-07T02:58:54;99895.88;;;5.91;43.34
75447;BME280;64024;55.820;37.574;2022-12-07T03:06:42;99895.03;;;5.83;43.19
75447;BME280;64024;55.820;37.574;2022-12-07T03:09:19;99890.88;;;5.80;43.12
75447;BME280;64024;55.820;37.574;2022-12-07T03:12:37;99894.38;;;5.81;43.30
75447;BME280;64024;55.820;37.574;2022-12-07T03:14:47;99890.00;;;5.97;43.80
75447;BME280;64024;55.820;37.574;2022-12-07T03:17:23;99900.72;;;6.20;44.69
75447;BME280;64024;55.820;37.574;2022-12-07T03:19:52;99896.28;;;6.45;44.92
75447;BME280;64024;55.820;37.574;2022-12-07T03:22:21;99891.16;;;6.60;44.46
75447;BME280;64024;55.820;37.574;2022-12-07T03:24:54;99886.53;;;6.62;44.61
75447;BME280;64024;55.820;37.574;2022-12-07T03:27:24;99890.50;;;6.58;44.49
75447;BME280;64024;55.820;37.574;2022-12-07T03:30:20;99890.50;;;6.50;44.69
75447;BME280;64024;55.820;37.574;2022-12-07T03:32:58;99892.31;;;6.41;44.58
75447;BME280;64024;55.820;37.574;2022-12-07T03:35:35;99898.59;;;6.32;44.60
75447;BME280;64024;55.820;37.574;2022-12-07T03:38:16;99889.84;;;6.23;44.67
75447;BME280;64024;55.820;37.574;2022-12-07T03:41:11;99885.56;;;6.14;44.49
75447;BME280;64024;55.820;37.574;2022-12-07T03:43:37;99887.38;;;6.06;44.57
75447;BME280;64024;55.820;37.574;2022-12-07T03:51:49;99893.88;;;5.85;44.66
75447;BME280;64024;55.820;37.574;2022-12-07T03:54:28;99895.34;;;5.80;44.46
75447;BME280;64024;55.820;37.574;2022-12-07T03:56:56;99883.63;;;5.74;44.64
75447;BME280;64024;55.820;37.574;2022-12-07T03:59:23;99896.47;;;5.69;44.82
75447;BME280;64024;55.820;37.574;2022-12-07T04:01:56;99889.06;;;5.64;44.77
75447;BME280;64024;55.820;37.574;2022-12-07T04:04:23;99893.00;;;5.60;44.77
75447;BME280;64024;55.820;37.574;2022-12-07T04:06:49;99890.81;;;5.56;44.59
75447;BME280;64024;55.820;37.574;2022-12-07T04:09:15;99880.75;;;5.51;44.55
75447;BME280;64024;55.820;37.574;2022-12-07T04:11:41;99878.44;;;5.48;44.42
75447;BME280;64024;55.820;37.574;2022-12-07T04:14:07;99888.63;;;5.43;44.79
75447;BME280;64024;55.820;37.574;2022-12-07T04:19:15;99880.53;;;5.36;44.30
75447;BME280;64024;55.820;37.574;2022-12-07T04:21:41;99875.56;;;5.33;44.37
75447;BME280;64024;55.820;37.574;2022-12-07T04:24:07;99881.16;;;5.30;44.58
75447;BME280;64024;55.820;37.574;2022-12-07T04:26:33;99880.63;;;5.27;44.51
75447;BME280;64024;55.820;37.574;2022-12-07T04:28:58;99883.63;;;5.23;44.63
75447;BME280;64024;55.820;37.574;2022-12-07T04:31:24;99877.81;;;5.20;44.44
75447;BME280;64024;55.820;37.574;2022-12-07T04:33:49;99866.59;;;5.18;44.23
75447;BME280;64024;55.820;37.574;2022-12-07T04:36:15;99866.94;;;5.15;44.45
75447;BME280;64024;55.820;37.574;2022-12-07T04:38:41;99878.59;;;5.12;44.58
75447;BME280;64024;55.820;37.574;2022-12-07T04:41:07;99879.75;;;5.10;44.31
75447;BME280;64024;55.820;37.574;2022-12-07T04:43:34;99875.63;;;5.07;44.08
75447;BME280;64024;55.820;37.574;2022-12-07T04:46:00;99865.41;;;5.04;44.49
75447;BME280;64024;55.820;37.574;2022-12-07T04:48:25;99865.69;;;5.01;44.60
75447;BME280;64024;55.820;37.574;2022-12-07T04:50:51;99875.72;;;4.97;44.15
75447;BME280;64024;55.820;37.574;2022-12-07T04:53:17;99875.22;;;4.94;44.31
75447;BME280;64024;55.820;37.574;2022-12-07T04:55:43;99887.72;;;4.92;44.20
75447;BME280;64024;55.820;37.574;2022-12-07T04:58:09;99880.97;;;4.89;44.35
75447;BME280;64024;55.820;37.574;2022-12-07T05:00:35;99876.00;;;4.86;44.46
75447;BME280;64024;55.820;37.574;2022-12-07T05:03:00;99881.56;;;4.83;44.62
75447;BME280;64024;55.820;37.574;2022-12-07T05:05:26;99880.06;;;4.81;44.50
75447;BME280;64024;55.820;37.574;2022-12-07T05:07:51;99876.78;;;4.79;44.38
75447;BME280;64024;55.820;37.574;2022-12-07T05:10:17;99877.75;;;4.78;44.16
75447;BME280;64024;55.820;37.574;2022-12-07T05:12:42;99881.53;;;4.75;44.08
75447;BME280;64024;55.820;37.574;2022-12-07T05:15:08;99878.22;;;4.73;44.39
75447;BME280;64024;55.820;37.574;2022-12-07T05:17:34;99892.53;;;4.70;44.49
75447;BME280;64024;55.820;37.574;2022-12-07T05:19:59;99888.25;;;4.69;44.13
75447;BME280;64024;55.820;37.574;2022-12-07T05:22:25;99889.38;;;4.67;44.31
75447;BME280;64024;55.820;37.574;2022-12-07T05:24:54;99887.84;;;4.64;44.14
75447;BME280;64024;55.820;37.574;2022-12-07T05:27:19;99877.50;;;4.63;44.05
75447;BME280;64024;55.820;37.574;2022-12-07T05:29:45;99875.03;;;4.61;44.60
75447;BME280;64024;55.820;37.574;2022-12-07T05:32:11;99877.78;;;4.60;44.32
75447;BME280;64024;55.820;37.574;2022-12-07T05:34:36;99876.31;;;4.57;44.44
75447;BME280;64024;55.820;37.574;2022-12-07T05:37:02;99878.13;;;4.57;43.97
75447;BME280;64024;55.820;37.574;2022-12-07T05:39:27;99871.34;;;4.54;44.46
75447;BME280;64024;55.820;37.574;2022-12-07T05:41:53;99886.31;;;4.54;44.39
75447;BME280;64024;55.820;37.574;2022-12-07T05:44:41;99883.00;;;4.52;44.09
75447;BME280;64024;55.820;37.574;2022-12-07T05:47:07;99881.34;;;4.51;44.32
75447;BME280;64024;55.820;37.574;2022-12-07T05:49:33;99874.44;;;4.49;44.08
75447;BME280;64024;55.820;37.574;2022-12-07T05:51:59;99891.34;;;4.47;44.11
75447;BME280;64024;55.820;37.574;2022-12-07T05:54:24;99876.38;;;4.47;43.92
75447;BME280;64024;55.820;37.574;2022-12-07T05:56:50;99876.53;;;4.46;43.97
75447;BME280;64024;55.820;37.574;2022-12-07T05:59:16;99874.91;;;4.45;44.30
75447;BME280;64024;55.820;37.574;2022-12-07T06:01:49;99881.16;;;4.44;44.22
75447;BME280;64024;55.820;37.574;2022-12-07T06:04:15;99878.53;;;4.44;43.98
75447;BME280;64024;55.820;37.574;2022-12-07T06:06:41;99877.53;;;4.45;43.81
75447;BME280;64024;55.820;37.574;2022-12-07T06:09:07;99870.63;;;4.44;44.31
75447;BME280;64024;55.820;37.574;2022-12-07T06:11:32;99876.72;;;4.44;43.77
75447;BME280;64024;55.820;37.574;2022-12-07T06:14:16;99867.00;;;4.45;44.01
75447;BME280;64024;55.820;37.574;2022-12-07T06:16:42;99873.09;;;4.45;43.76
75447;BME280;64024;55.820;37.574;2022-12-07T06:19:08;99874.06;;;4.44;43.37
75447;BME280;64024;55.820;37.574;2022-12-07T06:21:33;99874.72;;;4.46;44.21
75447;BME280;64024;55.820;37.574;2022-12-07T06:23:59;99866.84;;;4.46;43.75
75447;BME280;64024;55.820;37.574;2022-12-07T06:26:24;99870.47;;;4.45;43.69
75447;BME280;64024;55.820;37.574;2022-12-07T06:28:50;99873.09;;;4.45;43.78
75447;BME280;64024;55.820;37.574;2022-12-07T06:31:16;99873.09;;;4.45;43.81
75447;BME280;64024;55.820;37.574;2022-12-07T06:33:42;99853.56;;;4.48;43.50
75447;BME280;64024;55.820;37.574;2022-12-07T06:36:08;99871.81;;;4.49;43.90
75447;BME280;64024;55.820;37.574;2022-12-07T06:38:34;99863.75;;;4.51;43.87
75447;BME280;64024;55.820;37.574;2022-12-07T06:41:00;99878.72;;;4.51;43.56
75447;BME280;64024;55.820;37.574;2022-12-07T06:43:25;99866.25;;;4.53;43.50
75447;BME280;64024;55.820;37.574;2022-12-07T06:45:51;99867.88;;;4.54;43.07
75447;BME280;64024;55.820;37.574;2022-12-07T06:48:16;99873.00;;;4.55;43.88
75447;BME280;64024;55.820;37.574;2022-12-07T06:50:44;99869.41;;;4.56;43.30
75447;BME280;64024;55.820;37.574;2022-12-07T06:53:10;99875.03;;;4.61;43.44
75447;BME280;64024;55.820;37.574;2022-12-07T06:55:35;99880.28;;;4.61;43.61
75447;BME280;64024;55.820;37.574;2022-12-07T06:58:01;99858.53;;;4.59;43.44
75447;BME280;64024;55.820;37.574;2022-12-07T07:00:28;99871.56;;;4.61;43.19
75447;BME280;64024;55.820;37.574;2022-12-07T07:02:54;99862.81;;;4.60;43.01
75447;BME280;64024;55.820;37.574;2022-12-07T07:05:19;99869.75;;;4.61;43.61
75447;BME280;64024;55.820;37.574;2022-12-07T07:07:50;99877.50;;;4.63;43.51
75447;BME280;64024;55.820;37.574;2022-12-07T07:10:16;99877.31;;;4.64;43.38
75447;BME280;64024;55.820;37.574;2022-12-07T07:12:41;99869.94;;;4.68;43.66
75447;BME280;64024;55.820;37.574;2022-12-07T07:15:07;99869.09;;;4.85;43.13
75447;BME280;64024;55.820;37.574;2022-12-07T07:17:33;99868.75;;;5.14;43.40
75447;BME280;64024;55.820;37.574;2022-12-07T07:19:58;99872.19;;;5.49;43.04
75447;BME280;64024;55.820;37.574;2022-12-07T07:22:24;99871.97;;;5.85;42.56
75447;BME280;64024;55.820;37.574;2022-12-07T07:24:49;99863.28;;;6.17;42.43
75447;BME280;64024;55.820;37.574;2022-12-07T07:27:15;99854.53;;;6.49;42.15
75447;BME280;64024;55.820;37.574;2022-12-07T07:29:40;99854.81;;;6.79;42.30
75447;BME280;64024;55.820;37.574;2022-12-07T07:32:06;99843.34;;;7.11;41.86
75447;BME280;64024;55.820;37.574;2022-12-07T07:34:33;99851.13;;;7.43;42.64
75447;BME280;64024;55.820;37.574;2022-12-07T07:36:58;99844.84;;;7.76;42.49
75447;BME280;64024;55.820;37.574;2022-12-07T07:39:24;99838.88;;;8.05;42.79
75447;BME280;64024;55.820;37.574;2022-12-07T07:41:49;99843.59;;;8.32;42.42
75447;BME280;64024;55.820;37.574;2022-12-07T07:44:15;99826.34;;;8.59;42.84
75447;BME280;64024;55.820;37.574;2022-12-07T07:46:40;99810.38;;;8.82;43.40
75447;BME280;64024;55.820;37.574;2022-12-07T07:49:06;99824.16;;;9.07;42.76
75447;BME280;64024;55.820;37.574;2022-12-07T07:51:31;99816.47;;;9.27;43.00
75447;BME280;64024;55.820;37.574;2022-12-07T07:53:57;99808.94;;;9.45;43.11
75447;BME280;64024;55.820;37.574;2022-12-07T07:56:22;99819.97;;;9.64;43.04
75447;BME280;64024;55.820;37.574;2022-12-07T07:58:52;99811.56;;;9.82;43.41
75447;BME280;64024;55.820;37.574;2022-12-07T08:01:17;99819.94;;;10.00;42.71
75447;BME280;64024;55.820;37.574;2022-12-07T08:03:48;99816.38;;;10.14;42.90
75447;BME280;64024;55.820;37.574;2022-12-07T08:06:15;99826.75;;;10.31;42.44
75447;BME280;64024;55.820;37.574;2022-12-07T08:08:41;99823.81;;;10.47;42.74
75447;BME280;64024;55.820;37.574;2022-12-07T08:11:08;99794.69;;;10.60;42.37
75447;BME280;64024;55.820;37.574;2022-12-07T08:13:34;99820.34;;;10.75;42.84
75447;BME280;64024;55.820;37.574;2022-12-07T08:16:12;99807.94;;;10.88;42.62
75447;BME280;64024;55.820;37.574;2022-12-07T08:18:39;99808.44;;;11.05;42.42
75447;BME280;64024;55.820;37.574;2022-12-07T08:21:06;99791.34;;;11.21;42.63
75447;BME280;64024;55.820;37.574;2022-12-07T08:23:32;99796.50;;;11.36;42.11
75447;BME280;64024;55.820;37.574;2022-12-07T08:26:04;99796.94;;;11.46;42.21
75447;BME280;64024;55.820;37.574;2022-12-07T08:28:32;99786.72;;;11.56;41.87
75447;BME280;64024;55.820;37.574;2022-12-07T08:31:02;99780.41;;;11.64;41.66
75447;BME280;64024;55.820;37.574;2022-12-07T08:33:28;99777.94;;;11.69;41.28
75447;BME280;64024;55.820;37.574;2022-12-07T08:35:54;99785.75;;;11.70;40.92
75447;BME280;64024;55.820;37.574;2022-12-07T08:38:19;99784.13;;;11.76;40.83
75447;BME280;64024;55.820;37.574;2022-12-07T08:40:52;99793.13;;;11.82;40.40
75447;BME280;64024;55.820;37.574;2022-12-07T08:43:18;99789.91;;;11.86;40.46
75447;BME280;64024;55.820;37.574;2022-12-07T08:45:43;99789.31;;;11.91;40.04
75447;BME280;64024;55.820;37.574;2022-12-07T08:48:12;99777.84;;;11.90;40.15
75447;BME280;64024;55.820;37.574;2022-12-07T08:50:38;99779.25;;;11.93;39.83
75447;BME280;64024;55.820;37.574;2022-12-07T08:53:05;99769.00;;;11.97;39.52
75447;BME280;64024;55.820;37.574;2022-12-07T08:55:33;99778.25;;;12.01;39.78
75447;BME280;64024;55.820;37.574;2022-12-07T08:57:59;99771.47;;;12.05;39.64
75447;BME280;64024;55.820;37.574;2022-12-07T09:00:26;99762.28;;;12.07;39.32
75447;BME280;64024;55.820;37.574;2022-12-07T09:02:53;99770.03;;;12.09;39.30
75447;BME280;64024;55.820;37.574;2022-12-07T09:05:19;99767.59;;;12.14;39.13
75447;BME280;64024;55.820;37.574;2022-12-07T09:07:47;99755.31;;;12.19;39.06
75447;BME280;64024;55.820;37.574;2022-12-07T09:10:14;99753.44;;;12.27;39.03
75447;BME280;64024;55.820;37.574;2022-12-07T09:12:40;99754.03;;;12.35;39.02
75447;BME280;64024;55.820;37.574;2022-12-07T09:15:05;99756.94;;;12.40;38.80
75447;BME280;64024;55.820;37.574;2022-12-07T09:17:34;99751.16;;;12.43;38.67
75447;BME280;64024;55.820;37.574;2022-12-07T09:20:02;99753.41;;;12.47;38.67
75447;BME280;64024;55.820;37.574;2022-12-07T09:22:29;99745.81;;;12.50;38.50
75447;BME280;64024;55.820;37.574;2022-12-07T09:24:56;99744.97;;;12.56;38.41
75447;BME280;64024;55.820;37.574;2022-12-07T09:27:22;99747.66;;;12.63;38.67
75447;BME280;64024;55.820;37.574;2022-12-07T09:29:48;99731.63;;;12.69;38.22
75447;BME280;64024;55.820;37.574;2022-12-07T09:32:13;99733.88;;;12.73;37.92
75447;BME280;64024;55.820;37.574;2022-12-07T09:34:39;99732.41;;;12.77;37.91
75447;BME280;64024;55.820;37.574;2022-12-07T09:37:04;99727.91;;;12.77;37.36
75447;BME280;64024;55.820;37.574;2022-12-07T09:39:30;99728.53;;;12.79;37.26
75447;BME280;64024;55.820;37.574;2022-12-07T09:41:57;99728.09;;;12.82;36.92
75447;BME280;64024;55.820;37.574;2022-12-07T09:44:27;99715.38;;;12.84;36.69
75447;BME280;64024;55.820;37.574;2022-12-07T09:46:55;99729.53;;;12.85;36.62
75447;BME280;64024;55.820;37.574;2022-12-07T09:49:25;99732.41;;;12.83;36.53
75447;BME280;64024;55.820;37.574;2022-12-07T09:54:35;99721.75;;;12.83;36.54
75447;BME280;64024;55.820;37.574;2022-12-07T09:57:03;99727.88;;;12.84;36.50
75447;BME280;64024;55.820;37.574;2022-12-07T09:59:29;99711.47;;;12.87;36.41
75447;BME280;64024;55.820;37.574;2022-12-07T10:04:58;99717.22;;;12.90;36.37
75447;BME280;64024;55.820;37.574;2022-12-07T10:07:25;99710.84;;;12.91;36.56
75447;BME280;64024;55.820;37.574;2022-12-07T10:09:50;99705.09;;;12.94;36.52
75447;BME280;64024;55.820;37.574;2022-12-07T10:12:16;99709.16;;;12.97;36.35
75447;BME280;64024;55.820;37.574;2022-12-07T10:14:57;99702.59;;;13.00;36.29
75447;BME280;64024;55.820;37.574;2022-12-07T10:17:38;99701.94;;;13.04;36.54
75447;BME280;64024;55.820;37.574;2022-12-07T10:22:37;99690.38;;;13.17;36.63
75447;BME280;64024;55.820;37.574;2022-12-07T10:25:19;99703.75;;;13.24;36.01
75447;BME280;64024;55.820;37.574;2022-12-07T10:28:00;99699.38;;;13.29;36.19
75447;BME280;64024;55.820;37.574;2022-12-07T10:30:26;99680.94;;;13.28;36.41
75447;BME280;64024;55.820;37.574;2022-12-07T10:32:52;99699.81;;;13.19;36.45
75447;BME280;64024;55.820;37.574;2022-12-07T10:35:23;99698.88;;;13.07;36.51
75447;BME280;64024;55.820;37.574;2022-12-07T10:37:50;99689.28;;;12.93;36.63
75447;BME280;64024;55.820;37.574;2022-12-07T10:45:32;99685.09;;;12.52;37.00
75447;BME280;64024;55.820;37.574;2022-12-07T10:48:23;99677.78;;;12.41;37.22
75447;BME280;64024;55.820;37.574;2022-12-07T10:51:09;99687.84;;;12.32;37.46
75447;BME280;64024;55.820;37.574;2022-12-07T10:56:29;99680.47;;;12.14;37.60
75447;BME280;64024;55.820;37.574;2022-12-07T11:04:48;99673.97;;;11.90;38.01
75447;BME280;64024;55.820;37.574;2022-12-07T11:15:52;99654.88;;;11.67;38.03
75447;BME280;64024;55.820;37.574;2022-12-07T11:18:26;99659.38;;;11.60;38.07
75447;BME280;64024;55.820;37.574;2022-12-07T11:21:12;99657.13;;;11.57;38.60
75447;BME280;64024;55.820;37.574;2022-12-07T11:37:20;99644.03;;;12.08;37.58
75447;BME280;64024;55.820;37.574;2022-12-07T11:39:54;99650.16;;;12.15;37.27
75447;BME280;64024;55.820;37.574;2022-12-07T11:42:27;99644.63;;;12.24;36.92
75447;BME280;64024;55.820;37.574;2022-12-07T11:45:10;99650.94;;;12.29;36.61
75447;BME280;64024;55.820;37.574;2022-12-07T11:47:47;99637.59;;;12.36;36.61
75447;BME280;64024;55.820;37.574;2022-12-07T11:55:29;99619.31;;;12.46;36.21
75447;BME280;64024;55.820;37.574;2022-12-07T11:58:04;99615.19;;;12.50;36.18
75447;BME280;64024;55.820;37.574;2022-12-07T12:00:35;99616.63;;;12.53;36.12
75447;BME280;64024;55.820;37.574;2022-12-07T12:03:09;99622.34;;;12.56;36.02
75447;BME280;64024;55.820;37.574;2022-12-07T12:05:38;99605.94;;;12.59;35.72
75447;BME280;64024;55.820;37.574;2022-12-07T12:13:49;99606.50;;;12.68;35.27
75447;BME280;64024;55.820;37.574;2022-12-07T12:19:35;99600.75;;;12.71;34.65
75447;BME280;64024;55.820;37.574;2022-12-07T12:22:14;99598.69;;;12.73;34.83
75447;BME280;64024;55.820;37.574;2022-12-07T12:24:41;99601.38;;;12.73;34.84
75447;BME280;64024;55.820;37.574;2022-12-07T12:27:14;99589.84;;;12.73;34.89
75447;BME280;64024;55.820;37.574;2022-12-07T12:29:42;99595.00;;;12.74;34.87
75447;BME280;64024;55.820;37.574;2022-12-07T12:32:15;99594.53;;;12.77;35.29
75447;BME280;64024;55.820;37.574;2022-12-07T12:37:42;99588.53;;;12.88;36.32
75447;BME280;64024;55.820;37.574;2022-12-07T12:42:51;99592.38;;;12.99;36.24
75447;BME280;64024;55.820;37.574;2022-12-07T12:45:25;99584.38;;;12.99;36.05
75447;BME280;64024;55.820;37.574;2022-12-07T12:48:29;99601.63;;;12.97;35.85
75447;BME280;64024;55.820;37.574;2022-12-07T12:57:36;99599.03;;;12.83;35.16
75447;BME280;64024;55.820;37.574;2022-12-07T13:28:50;99585.88;;;12.88;35.55
75447;BME280;64024;55.820;37.574;2022-12-07T13:33:48;99569.47;;;12.85;35.44
75447;BME280;64024;55.820;37.574;2022-12-07T13:36:22;99576.66;;;12.84;35.30
75447;BME280;64024;55.820;37.574;2022-12-07T13:38:57;99582.00;;;12.84;35.27
75447;BME280;64024;55.820;37.574;2022-12-07T13:41:25;99572.59;;;12.82;35.41
75447;BME280;64024;55.820;37.574;2022-12-07T13:46:34;99578.53;;;12.77;35.05
75447;BME280;64024;55.820;37.574;2022-12-07T13:49:01;99565.66;;;12.74;35.13
75447;BME280;64024;55.820;37.574;2022-12-07T13:51:28;99587.19;;;12.73;35.25
75447;BME280;64024;55.820;37.574;2022-12-07T13:53:58;99583.94;;;12.71;35.17
75447;BME280;64024;55.820;37.574;2022-12-07T13:56:32;99586.81;;;12.69;34.94
75447;BME280;64024;55.820;37.574;2022-12-07T13:58:59;99578.22;;;12.67;35.13
75447;BME280;64024;55.820;37.574;2022-12-07T14:01:25;99572.88;;;12.67;35.19
75447;BME280;64024;55.820;37.574;2022-12-07T14:03:50;99574.72;;;12.66;35.19
75447;BME280;64024;55.820;37.574;2022-12-07T14:06:26;99576.34;;;12.67;35.21
75447;BME280;64024;55.820;37.574;2022-12-07T14:09:16;99564.88;;;12.67;34.96
75447;BME280;64024;55.820;37.574;2022-12-07T14:11:43;99576.34;;;12.67;35.46
75447;BME280;64024;55.820;37.574;2022-12-07T14:14:26;99575.75;;;12.65;35.40
75447;BME280;64024;55.820;37.574;2022-12-07T14:16:57;99577.25;;;12.55;35.52
75447;BME280;64024;55.820;37.574;2022-12-07T14:19:46;99571.34;;;12.39;36.03
75447;BME280;64024;55.820;37.574;2022-12-07T14:22:25;99579.81;;;12.23;36.08
75447;BME280;64024;55.820;37.574;2022-12-07T14:24:59;99579.69;;;12.05;36.67
75447;BME280;64024;55.820;37.574;2022-12-07T14:27:24;99571.50;;;11.93;36.83
75447;BME280;64024;55.820;37.574;2022-12-07T14:29:56;99570.88;;;12.04;36.93
75447;BME280;64024;55.820;37.574;2022-12-07T14:32:24;99568.34;;;12.23;36.77
75447;BME280;64024;55.820;37.574;2022-12-07T14:35:08;99569.25;;;12.48;36.65
75447;BME280;64024;55.820;37.574;2022-12-07T14:37:36;99553.38;;;12.73;36.23
75447;BME280;64024;55.820;37.574;2022-12-07T14:40:02;99554.03;;;12.93;35.92
75447;BME280;64024;55.820;37.574;2022-12-07T14:42:30;99559.66;;;13.10;35.76
75447;BME280;64024;55.820;37.574;2022-12-07T14:44:57;99548.47;;;13.27;35.54
75447;BME280;64024;55.820;37.574;2022-12-07T14:47:24;99556.41;;;13.40;35.08
75447;BME280;64024;55.820;37.574;2022-12-07T14:49:50;99552.19;;;13.51;35.10
75447;BME280;64024;55.820;37.574;2022-12-07T14:52:28;99549.84;;;13.61;34.57
75447;BME280;64024;55.820;37.574;2022-12-07T14:54:55;99544.44;;;13.67;34.74
75447;BME280;64024;55.820;37.574;2022-12-07T14:57:21;99548.91;;;13.74;34.28
75447;BME280;64024;55.820;37.574;2022-12-07T14:59:47;99547.19;;;13.79;34.48
75447;BME280;64024;55.820;37.574;2022-12-07T15:02:13;99554.53;;;13.84;34.05
75447;BME280;64024;55.820;37.574;2022-12-07T15:04:39;99537.63;;;13.90;34.22
75447;BME280;64024;55.820;37.574;2022-12-07T15:07:12;99538.00;;;13.93;34.06
75447;BME280;64024;55.820;37.574;2022-12-07T15:09:40;99549.13;;;13.90;33.98
75447;BME280;64024;55.820;37.574;2022-12-07T15:12:05;99529.69;;;13.83;34.25
75447;BME280;64024;55.820;37.574;2022-12-07T15:14:31;99525.25;;;13.77;34.27
75447;BME280;64024;55.820;37.574;2022-12-07T15:16:56;99536.56;;;13.73;34.32
75447;BME280;64024;55.820;37.574;2022-12-07T15:19:23;99530.06;;;13.68;34.63